Time;durP1;ratioP1;P1;durP2;ratioP2;P2;SDS_P1;SDS_P2;PMS_P1;PMS_P2;Temp;Humidity;BMP_temperature;BMP_pressure;BME280_temperature;BME280_humidity;BME280_pressure;Samples;Min_cycle;Max_cycle;Signal;HPM_P1;HPM_P2
2023/07/10 00:05:24;;;;;;;5.60;2.92;;;28.90;76.50;;;;;;10985553;32;20037;-72
2023/07/10 00:11:30;;;;;;;4.22;2.20;;;28.90;76.30;;;;;;10985341;32;20022;-72
2023/07/10 00:17:32;;;;;;;6.97;3.23;;;28.90;76.40;;;;;;10969047;32;20085;-72
2023/07/10 00:23:35;;;;;;;3.45;2.47;;;28.90;76.40;;;;;;10984966;32;20129;-72
2023/07/10 00:29:37;;;;;;;6.75;3.30;;;28.80;76.50;;;;;;10984651;32;20306;-72
2023/07/10 00:35:40;;;;;;;3.12;2.45;;;28.70;76.80;;;;;;10984405;32;20026;-72
2023/07/10 00:42:03;;;;;;;3.67;1.77;;;28.70;76.90;;;;;;10967294;32;20026;-72
2023/07/10 00:48:35;;;;;;;4.47;2.60;;;28.60;77.00;;;;;;10984067;32;20029;-72
2023/07/10 00:54:43;;;;;;;2.70;2.05;;;28.50;77.10;;;;;;10983746;32;20337;-72
2023/07/10 01:01:07;;;;;;;4.50;2.40;;;28.40;77.30;;;;;;10983171;32;20041;-72
2023/07/10 01:07:15;;;;;;;9.23;2.55;;;28.40;77.30;;;;;;10969852;32;20041;-72
2023/07/10 01:13:17;;;;;;;3.65;2.72;;;28.50;77.50;;;;;;10967334;32;20015;-72
2023/07/10 01:19:23;;;;;;;4.25;2.45;;;28.50;77.80;;;;;;10982994;32;20019;-72
2023/07/10 01:25:25;;;;;;;4.25;2.28;;;28.50;77.90;;;;;;10982727;32;20015;-72
2023/07/10 01:31:28;;;;;;;14.20;3.40;;;28.40;77.90;;;;;;10982371;32;20037;-72
2023/07/10 01:37:32;;;;;;;4.20;2.08;;;28.30;77.90;;;;;;10978116;32;20010;-72
2023/07/10 01:43:34;;;;;;;4.22;2.67;;;28.30;78.30;;;;;;10982047;32;20023;-72
2023/07/10 01:49:58;;;;;;;4.30;2.67;;;28.30;78.30;;;;;;10981543;32;20014;-72
2023/07/10 01:56:00;;;;;;;5.30;2.97;;;28.20;78.30;;;;;;10981229;32;20439;-72
2023/07/10 02:02:02;;;;;;;4.22;2.20;;;28.10;78.30;;;;;;10981396;32;20018;-72
2023/07/10 02:08:05;;;;;;;4.68;3.00;;;28.10;78.20;;;;;;10981080;32;20041;-72
2023/07/10 02:14:08;;;;;;;7.37;2.53;;;28.00;78.10;;;;;;10980807;32;20099;-71
2023/07/10 02:20:10;;;;;;;7.57;3.35;;;27.90;78.40;;;;;;10980730;32;20014;-71
2023/07/10 02:26:12;;;;;;;4.07;2.75;;;27.80;78.70;;;;;;10980589;32;20030;-71
2023/07/10 02:32:14;;;;;;;6.53;3.37;;;27.80;79.30;;;;;;10979391;32;20030;-72
2023/07/10 02:38:16;;;;;;;4.82;3.12;;;27.80;79.40;;;;;;10980177;32;20341;-72
2023/07/10 02:44:18;;;;;;;6.55;4.20;;;27.80;79.20;;;;;;10980019;32;20037;-72
2023/07/10 02:50:20;;;;;;;4.25;2.72;;;27.70;79.20;;;;;;10979874;32;20333;-71
2023/07/10 02:56:22;;;;;;;6.05;3.20;;;27.60;79.10;;;;;;10979688;32;20010;-71
2023/07/10 03:02:24;;;;;;;8.32;4.60;;;27.40;79.20;;;;;;10979065;32;20068;-71
2023/07/10 03:08:27;;;;;;;5.82;3.00;;;27.50;79.40;;;;;;10980117;32;20333;-71
2023/07/10 03:14:29;;;;;;;6.62;3.83;;;27.50;79.40;;;;;;10979254;32;20014;-71
2023/07/10 03:20:31;;;;;;;5.55;3.75;;;27.50;79.20;;;;;;10963098;32;20030;-71
2023/07/10 03:26:33;;;;;;;4.43;2.75;;;27.40;79.20;;;;;;10979208;32;20050;-71
2023/07/10 03:32:35;;;;;;;6.37;4.15;;;27.30;79.40;;;;;;10978313;32;20031;-71
2023/07/10 03:38:37;;;;;;;7.20;3.78;;;27.40;79.70;;;;;;10979032;32;20010;-72
2023/07/10 03:44:39;;;;;;;6.62;4.40;;;27.50;79.50;;;;;;10978882;32;20042;-71
2023/07/10 03:50:42;;;;;;;5.20;2.97;;;27.40;79.30;;;;;;10965291;32;20033;-71
2023/07/10 03:56:44;;;;;;;6.43;3.95;;;27.30;79.40;;;;;;10974609;32;20053;-71
2023/07/10 04:02:46;;;;;;;5.15;4.15;;;27.40;79.80;;;;;;10978550;32;20041;-71
2023/07/10 04:08:48;;;;;;;7.40;5.18;;;27.50;80.10;;;;;;10978524;32;20011;-71
2023/07/10 04:14:50;;;;;;;6.35;3.35;;;27.40;79.90;;;;;;10984711;32;20018;-72
2023/07/10 04:20:52;;;;;;;9.98;5.50;;;27.30;80.20;;;;;;10985054;32;20023;-71
2023/07/10 04:26:54;;;;;;;11.73;5.65;;;27.30;80.70;;;;;;10984769;32;20010;-72
2023/07/10 04:32:55;;;;;;;6.90;4.70;;;27.30;80.30;;;;;;10984618;32;20387;-72
2023/07/10 04:38:57;;;;;;;6.65;3.92;;;27.30;80.20;;;;;;10984461;32;20034;-71
2023/07/10 04:45:03;;;;;;;5.25;3.50;;;27.40;80.20;;;;;;10984387;32;20034;-72
2023/07/10 04:51:07;;;;;;;6.05;4.35;;;27.50;80.40;;;;;;10983903;32;20041;-72
2023/07/10 04:57:09;;;;;;;6.90;5.22;;;27.50;80.40;;;;;;10983768;32;20325;-72
2023/07/10 05:03:11;;;;;;;9.70;5.53;;;27.60;80.30;;;;;;10981824;32;20066;-72
2023/07/10 05:09:12;;;;;;;7.70;6.05;;;27.60;80.20;;;;;;10983379;32;20026;-72
2023/07/10 05:15:14;;;;;;;6.32;4.72;;;27.60;80.20;;;;;;10983046;32;20045;-72
2023/07/10 05:21:16;;;;;;;9.88;5.20;;;27.70;80.30;;;;;;10982311;32;20317;-72
2023/07/10 05:27:18;;;;;;;8.30;6.43;;;27.80;80.50;;;;;;10969239;32;20015;-72
2023/07/10 05:33:20;;;;;;;11.50;5.15;;;27.90;80.80;;;;;;10982369;32;20023;-72
2023/07/10 05:39:23;;;;;;;7.32;4.20;;;27.90;80.60;;;;;;10982262;32;20014;-72
2023/07/10 05:45:25;;;;;;;7.10;4.55;;;28.00;80.40;;;;;;10979684;32;20035;-72
2023/07/10 05:51:27;;;;;;;11.45;4.75;;;28.10;80.40;;;;;;10981828;32;20019;-72
2023/07/10 05:57:29;;;;;;;8.88;3.75;;;28.20;80.40;;;;;;10977379;32;20027;-72
2023/07/10 06:03:33;;;;;;;8.82;5.30;;;28.20;80.60;;;;;;10953314;32;20015;-72
2023/07/10 06:09:35;;;;;;;6.55;4.37;;;28.40;80.50;;;;;;10943648;32;20037;-72
2023/07/10 06:15:45;;;;;;;4.35;2.90;;;28.50;80.50;;;;;;10943319;32;20023;-73
2023/07/10 06:21:47;;;;;;;8.05;4.65;;;28.70;80.60;;;;;;10940533;32;20018;-72
2023/07/10 06:27:49;;;;;;;6.15;4.32;;;28.80;80.70;;;;;;10949981;32;20014;-72
2023/07/10 06:33:51;;;;;;;5.68;4.28;;;28.90;80.80;;;;;;10980264;32;20027;-73
2023/07/10 06:40:10;;;;;;;9.70;5.40;;;29.00;80.60;;;;;;10980219;32;20034;-73
2023/07/10 06:46:11;;;;;;;9.32;5.25;;;29.10;80.70;;;;;;10975890;32;20385;-72
2023/07/10 06:52:13;;;;;;;7.35;5.15;;;29.10;81.10;;;;;;10964102;32;20361;-72
2023/07/10 06:58:15;;;;;;;10.23;5.12;;;29.20;80.70;;;;;;10979224;32;20019;-72
2023/07/10 07:04:18;;;;;;;5.47;3.97;;;29.30;80.40;;;;;;10959341;32;20037;-72
2023/07/10 07:10:20;;;;;;;7.30;3.53;;;29.40;80.30;;;;;;10978882;32;20057;-73
2023/07/10 07:16:22;;;;;;;5.10;3.37;;;29.60;79.90;;;;;;10961052;32;20035;-72
2023/07/10 07:22:24;;;;;;;6.47;5.32;;;29.70;79.90;;;;;;10979025;32;20038;-72
2023/07/10 07:28:26;;;;;;;16.05;4.47;;;29.70;79.70;;;;;;10571649;27;11944455;-72
2023/07/10 07:34:28;;;;;;;5.45;3.78;;;29.80;79.60;;;;;;10825891;33;20023;-72
2023/07/10 07:40:30;;;;;;;6.22;3.83;;;29.90;79.40;;;;;;10825172;33;20027;-72
2023/07/10 07:46:32;;;;;;;5.72;3.53;;;30.00;78.90;;;;;;10828269;32;20025;-73
2023/07/10 07:52:34;;;;;;;6.18;3.40;;;30.10;78.60;;;;;;10837310;32;20032;-73
2023/07/10 07:58:36;;;;;;;7.90;4.00;;;30.20;78.20;;;;;;10910397;32;20023;-73
2023/07/10 08:04:38;;;;;;;5.97;3.72;;;30.30;78.20;;;;;;10896259;32;20444;-72
2023/07/10 08:10:46;;;;;;;7.50;5.28;;;30.40;78.40;;;;;;10909866;32;20038;-73
2023/07/10 08:16:47;;;;;;;;;;;30.40;77.10;;;;;;10909628;32;20020;-72
2023/07/10 08:22:49;;;;;;;5.47;3.80;;;30.50;76.20;;;;;;10909304;32;19926;-72
2023/07/10 08:29:45;;;;;;;7.25;4.70;;;30.60;76.90;;;;;;10893799;32;20058;-72
2023/07/10 08:36:05;;;;;;;8.27;5.28;;;30.80;75.40;;;;;;10781020;33;20075;-73
2023/07/10 08:42:22;;;;;;;8.77;4.95;;;30.80;75.00;;;;;;10793948;32;20032;-73
2023/07/10 08:48:55;;;;;;;10.13;5.53;;;30.90;74.40;;;;;;10793696;33;20316;-73
2023/07/10 08:54:58;;;;;;;6.70;4.25;;;31.10;73.00;;;;;;10789492;33;20021;-72
2023/07/10 09:01:17;;;;;;;7.12;5.45;;;31.20;72.80;;;;;;10788153;33;20028;-73
2023/07/10 09:07:20;;;;;;;6.37;4.30;;;31.30;72.10;;;;;;10810862;32;20027;-73
2023/07/10 09:14:04;;;;;;;6.53;4.75;;;31.40;71.50;;;;;;10907780;32;20322;-73
2023/07/10 09:20:12;;;;;;;9.80;4.37;;;31.60;70.60;;;;;;10904549;32;20023;-73
2023/07/10 09:26:30;;;;;;;5.12;3.70;;;31.80;69.90;;;;;;10893592;32;20093;-73
2023/07/10 09:32:36;;;;;;;6.62;4.05;;;31.80;69.60;;;;;;10907043;32;20065;-73
2023/07/10 09:38:41;;;;;;;10.25;4.90;;;31.90;69.20;;;;;;10906825;32;20046;-73
2023/07/10 09:44:51;;;;;;;7.57;5.03;;;32.00;68.70;;;;;;10906725;32;20011;-72
2023/07/10 09:50:54;;;;;;;6.10;4.03;;;32.10;68.10;;;;;;10907416;32;20394;-73
2023/07/10 09:56:56;;;;;;;9.07;4.47;;;32.30;67.60;;;;;;10906158;32;20023;-72
2023/07/10 10:03:02;;;;;;;6.90;4.80;;;32.30;67.10;;;;;;10903388;32;20053;-73
2023/07/10 10:09:22;;;;;;;6.53;3.87;;;32.40;66.10;;;;;;10905472;32;20004;-73
2023/07/10 10:15:31;;;;;;;10.40;5.65;;;32.40;65.80;;;;;;10905511;32;20400;-73
2023/07/10 10:21:34;;;;;;;7.32;4.78;;;32.50;65.00;;;;;;10891936;32;20031;-72
2023/07/10 10:28:02;;;;;;;8.25;5.00;;;32.60;64.90;;;;;;10905149;32;20402;-73
2023/07/10 10:34:16;;;;;;;7.30;4.97;;;32.80;64.20;;;;;;10891526;32;20039;-72
2023/07/10 10:40:44;;;;;;;7.90;4.95;;;33.00;63.60;;;;;;10891337;32;20057;-72
2023/07/10 10:47:13;;;;;;;9.65;5.75;;;33.10;63.00;;;;;;10904657;32;20045;-74
2023/07/10 10:53:33;;;;;;;6.53;4.03;;;33.10;62.90;;;;;;10904482;32;20077;-73
2023/07/10 11:00:12;;;;;;;6.00;4.35;;;33.30;63.00;;;;;;10878592;32;20059;-72
2023/07/10 11:06:20;;;;;;;7.35;5.35;;;33.50;62.10;;;;;;10877208;32;20058;-72
2023/07/10 11:12:25;;;;;;;6.93;4.80;;;33.60;60.80;;;;;;10903974;32;20016;-73
2023/07/10 11:18:27;;;;;;;7.30;5.57;;;33.80;61.50;;;;;;10890484;32;20446;-73
2023/07/10 11:24:34;;;;;;;8.45;4.57;;;34.10;61.10;;;;;;10897170;32;20023;-73
2023/07/10 11:30:36;;;;;;;6.62;4.68;;;34.40;60.20;;;;;;10909591;32;20045;-72
2023/07/10 11:36:45;;;;;;;8.75;6.18;;;34.70;59.80;;;;;;10911369;32;20020;-73
2023/07/10 11:42:47;;;;;;;8.68;6.70;;;34.70;59.40;;;;;;10907900;32;20023;-71
2023/07/10 11:49:08;;;;;;;8.23;5.32;;;34.60;58.30;;;;;;10897639;32;20037;-72
2023/07/10 11:55:22;;;;;;;8.40;5.57;;;34.80;58.40;;;;;;10910686;32;20081;-72
2023/07/10 12:01:26;;;;;;;8.82;4.60;;;34.90;57.50;;;;;;10912224;32;20042;-73
2023/07/10 12:07:29;;;;;;;7.07;5.32;;;35.00;57.00;;;;;;10910216;32;20019;-73
2023/07/10 12:13:31;;;;;;;10.02;5.62;;;35.00;58.20;;;;;;10909929;32;20342;-73
2023/07/10 12:19:36;;;;;;;7.85;5.57;;;35.20;58.10;;;;;;10909791;32;20366;-73
2023/07/10 12:25:45;;;;;;;8.20;4.90;;;35.40;57.30;;;;;;10909650;32;20012;-73
2023/07/10 12:31:48;;;;;;;8.93;6.43;;;35.50;57.00;;;;;;10909064;32;20020;-74
2023/07/10 12:37:50;;;;;;;7.20;5.55;;;35.50;58.30;;;;;;10895832;32;20027;-73
2023/07/10 12:43:56;;;;;;;6.78;4.45;;;35.50;58.20;;;;;;10895355;32;20023;-73
2023/07/10 12:49:59;;;;;;;8.53;6.17;;;35.60;57.60;;;;;;10908757;32;20015;-73
2023/07/10 12:56:26;;;;;;;9.25;5.70;;;35.50;58.10;;;;;;10908654;32;20019;-73
2023/07/10 13:02:45;;;;;;;7.18;4.78;;;35.50;57.80;;;;;;10908370;32;20028;-73
2023/07/10 13:08:50;;;;;;;7.40;4.68;;;35.50;59.20;;;;;;10894510;32;20031;-73
2023/07/10 13:14:53;;;;;;;6.45;4.28;;;35.50;60.00;;;;;;10907940;32;20050;-73
2023/07/10 13:20:55;;;;;;;7.20;4.10;;;35.60;60.50;;;;;;10894303;32;20085;-74
2023/07/10 13:26:57;;;;;;;6.65;4.50;;;35.60;59.00;;;;;;10907339;32;20015;-73
2023/07/10 13:32:59;;;;;;;9.00;4.72;;;35.70;58.00;;;;;;10907145;32;20015;-74
2023/07/10 13:39:01;;;;;;;5.97;4.22;;;35.60;58.40;;;;;;10907081;32;20338;-73
2023/07/10 13:45:03;;;;;;;5.07;3.75;;;35.50;57.90;;;;;;10892756;32;20054;-73
2023/07/10 13:51:09;;;;;;;11.65;6.35;;;35.50;57.50;;;;;;10906563;32;20054;-73
2023/07/10 13:57:29;;;;;;;7.05;4.95;;;35.50;58.10;;;;;;10892560;32;20050;-73
2023/07/10 14:03:35;;;;;;;6.43;3.90;;;35.40;59.30;;;;;;10906261;32;20046;-73
2023/07/10 14:09:37;;;;;;;9.33;4.43;;;35.40;60.20;;;;;;10905848;32;20406;-74
2023/07/10 14:15:40;;;;;;;9.95;4.65;;;35.30;59.30;;;;;;10905712;32;20329;-74
2023/07/10 14:21:43;;;;;;;10.70;4.70;;;35.40;58.90;;;;;;10904491;32;20020;-75
2023/07/10 14:27:45;;;;;;;6.25;3.65;;;35.30;59.70;;;;;;10905331;32;20467;-73
2023/07/10 14:33:47;;;;;;;4.32;2.97;;;35.30;63.20;;;;;;10905197;32;20027;-73
2023/07/10 14:39:50;;;;;;;6.32;3.55;;;35.30;61.40;;;;;;10904651;32;20008;-73
2023/07/10 14:45:57;;;;;;;4.47;3.28;;;35.40;60.20;;;;;;10903484;32;20054;-73
2023/07/10 14:51:59;;;;;;;6.47;3.92;;;35.40;59.50;;;;;;10901053;32;20046;-73
2023/07/10 14:58:01;;;;;;;3.90;3.00;;;35.40;59.30;;;;;;10903966;32;20042;-73
2023/07/10 15:04:03;;;;;;;7.75;4.57;;;35.40;58.70;;;;;;10902278;32;20054;-73
2023/07/10 15:10:19;;;;;;;5.70;3.42;;;35.30;58.50;;;;;;10903285;32;20054;-74
2023/07/10 15:16:24;;;;;;;5.43;3.27;;;35.20;57.70;;;;;;10903450;32;20050;-73
2023/07/10 15:22:26;;;;;;;10.07;2.97;;;35.10;57.90;;;;;;10877116;32;20039;-73
2023/07/10 15:28:28;;;;;;;6.18;3.92;;;35.10;57.50;;;;;;10906868;27;20046;-73
2023/07/10 15:34:30;;;;;;;6.45;3.65;;;35.20;58.40;;;;;;10901724;32;20058;-73
2023/07/10 15:40:35;;;;;;;7.03;4.72;;;35.00;60.00;;;;;;10903418;32;20038;-73
2023/07/10 15:46:39;;;;;;;5.28;3.45;;;35.00;60.00;;;;;;10903652;32;20046;-73
2023/07/10 15:52:45;;;;;;;12.50;4.78;;;34.80;61.60;;;;;;10903481;32;20042;-73
2023/07/10 15:58:47;;;;;;;13.97;4.63;;;34.70;61.90;;;;;;10900917;32;20027;-73
2023/07/10 16:04:49;;;;;;;7.75;3.62;;;34.70;62.30;;;;;;10901611;32;20036;-73
2023/07/10 16:11:19;;;;;;;6.40;3.40;;;34.60;61.30;;;;;;10908855;32;20023;-73
2023/07/10 16:17:21;;;;;;;9.45;4.00;;;34.60;62.50;;;;;;10909366;32;20365;-73
2023/07/10 16:23:31;;;;;;;6.25;3.60;;;34.40;63.10;;;;;;10897455;32;20040;-73
2023/07/10 16:29:33;;;;;;;6.10;2.45;;;34.40;63.20;;;;;;10868218;32;20335;-73
2023/07/10 16:35:35;;;;;;;5.65;3.58;;;34.40;62.40;;;;;;10854926;32;20047;-73
2023/07/10 16:41:38;;;;;;;3.92;2.97;;;34.40;63.60;;;;;;10871718;32;20425;-73
2023/07/10 16:47:40;;;;;;;7.70;4.68;;;34.30;63.20;;;;;;10871214;32;20042;-73
2023/07/10 16:53:42;;;;;;;9.02;3.33;;;34.30;62.90;;;;;;10870763;32;20036;-73
2023/07/10 16:59:45;;;;;;;6.30;3.15;;;34.30;62.40;;;;;;10886257;32;20054;-73
2023/07/10 17:05:47;;;;;;;4.05;2.78;;;34.40;62.60;;;;;;10896057;32;20035;-73
2023/07/10 17:11:49;;;;;;;5.15;3.15;;;34.40;61.90;;;;;;10889445;32;20050;-72
2023/07/10 17:17:51;;;;;;;4.12;2.47;;;34.40;61.30;;;;;;10892486;32;20054;-73
2023/07/10 17:23:54;;;;;;;5.68;3.20;;;34.40;61.20;;;;;;10907400;32;20423;-73
2023/07/10 17:29:56;;;;;;;6.45;3.25;;;34.40;61.10;;;;;;10906639;32;20085;-73
2023/07/10 17:35:58;;;;;;;7.15;3.62;;;34.40;60.90;;;;;;10893741;32;20350;-73
2023/07/10 17:42:01;;;;;;;6.53;2.97;;;34.40;61.40;;;;;;10906768;32;20050;-73
2023/07/10 17:48:17;;;;;;;5.05;2.55;;;34.30;62.90;;;;;;10905705;32;20022;-73
2023/07/10 17:54:22;;;;;;;4.57;2.83;;;34.30;62.40;;;;;;10905852;32;20346;-72
2023/07/10 18:00:24;;;;;;;4.45;2.80;;;34.50;61.60;;;;;;10906175;32;20523;-72
2023/07/10 18:06:26;;;;;;;7.85;4.07;;;34.90;60.30;;;;;;10905906;32;20467;-72
2023/07/10 18:12:28;;;;;;;5.12;3.05;;;34.80;60.70;;;;;;10905843;32;20050;-72
2023/07/10 18:18:34;;;;;;;3.15;2.15;;;34.40;62.30;;;;;;10892233;32;20041;-72
2023/07/10 18:24:36;;;;;;;4.75;2.97;;;34.00;63.30;;;;;;10905438;32;20457;-73
2023/07/10 18:30:42;;;;;;;13.40;3.97;;;33.80;64.00;;;;;;10902620;32;20015;-72
2023/07/10 18:36:45;;;;;;;3.67;2.50;;;33.50;65.40;;;;;;10904849;32;20011;-73
2023/07/10 18:42:47;;;;;;;5.22;2.45;;;33.30;66.40;;;;;;10890969;32;20311;-72
2023/07/10 18:48:50;;;;;;;8.23;2.85;;;33.20;66.50;;;;;;10904310;32;20030;-72
2023/07/10 18:54:52;;;;;;;5.57;2.20;;;33.00;66.80;;;;;;10904063;32;20294;-72
2023/07/10 19:00:55;;;;;;;3.62;2.65;;;32.90;67.00;;;;;;10904101;32;20027;-72
2023/07/10 19:06:57;;;;;;;4.80;3.33;;;32.90;67.00;;;;;;10903365;32;20330;-72
2023/07/10 19:12:59;;;;;;;10.18;2.97;;;32.80;67.50;;;;;;10902913;32;20365;-72
2023/07/10 19:19:06;;;;;;;3.45;1.95;;;32.80;68.30;;;;;;10877256;32;20066;-72
2023/07/10 19:25:15;;;;;;;4.40;2.58;;;32.60;68.80;;;;;;10903321;32;20023;-72
2023/07/10 19:31:20;;;;;;;3.35;2.05;;;32.60;68.80;;;;;;10903324;32;20015;-72
2023/07/10 19:37:25;;;;;;;3.60;1.77;;;32.50;68.90;;;;;;10903536;32;20035;-72
2023/07/10 19:43:27;;;;;;;6.53;2.37;;;32.40;69.30;;;;;;10894105;32;20337;-72
2023/07/10 19:49:29;;;;;;;3.15;2.00;;;32.40;69.50;;;;;;10910474;32;20011;-72
2023/07/10 19:55:31;;;;;;;3.97;2.25;;;32.30;69.60;;;;;;10910295;32;20402;-72
2023/07/10 20:01:34;;;;;;;3.30;1.98;;;32.30;70.10;;;;;;10894133;32;20045;-72
2023/07/10 20:07:36;;;;;;;3.95;1.98;;;32.20;70.60;;;;;;10896898;32;20061;-72
2023/07/10 20:13:38;;;;;;;4.07;2.53;;;32.20;70.80;;;;;;10909652;32;20019;-72
2023/07/10 20:19:40;;;;;;;5.72;2.12;;;32.10;71.20;;;;;;10909678;32;20012;-72
2023/07/10 20:25:44;;;;;;;3.37;2.20;;;32.10;71.80;;;;;;10909710;32;20016;-73
2023/07/10 20:31:48;;;;;;;5.45;3.10;;;32.00;73.10;;;;;;10909554;32;20397;-73
2023/07/10 20:37:50;;;;;;;2.50;1.83;;;31.90;73.40;;;;;;10909149;32;20322;-72
2023/07/10 20:43:52;;;;;;;4.15;2.28;;;31.80;73.40;;;;;;10895846;32;20020;-72
2023/07/10 20:49:55;;;;;;;5.00;2.85;;;31.70;74.10;;;;;;10904691;32;20024;-71
2023/07/10 20:56:22;;;;;;;2.70;1.58;;;31.60;74.60;;;;;;10906135;32;20102;-72
2023/07/10 21:02:26;;;;;;;4.53;2.83;;;31.60;74.60;;;;;;10908557;32;20038;-72
2023/07/10 21:08:32;;;;;;;4.07;3.03;;;31.40;74.80;;;;;;10904386;32;20042;-71
2023/07/10 21:14:34;;;;;;;7.83;2.53;;;31.30;75.60;;;;;;10908183;32;20322;-71
2023/07/10 21:20:41;;;;;;;6.25;3.20;;;31.30;75.40;;;;;;10907907;32;20443;-72
2023/07/10 21:26:55;;;;;;;10.57;2.78;;;31.30;75.40;;;;;;10907710;32;20434;-72
2023/07/10 21:32:57;;;;;;;5.28;3.25;;;31.30;75.40;;;;;;10893427;32;20389;-72
2023/07/10 21:38:58;;;;;;;4.25;2.10;;;31.30;75.90;;;;;;10893605;32;20035;-72
2023/07/10 21:45:01;;;;;;;5.53;3.05;;;31.20;75.90;;;;;;10907188;32;20377;-72
2023/07/10 21:51:05;;;;;;;3.37;2.12;;;31.30;76.10;;;;;;10906878;32;20041;-72
2023/07/10 21:57:22;;;;;;;2.60;2.12;;;31.30;75.80;;;;;;10906535;32;20016;-72
2023/07/10 22:03:28;;;;;;;5.32;2.50;;;31.20;76.20;;;;;;10906570;32;20393;-72
2023/07/10 22:09:52;;;;;;;4.47;2.62;;;31.10;76.20;;;;;;10903202;32;20424;-72
2023/07/10 22:15:54;;;;;;;3.60;2.25;;;31.10;76.40;;;;;;10906146;32;20073;-72
2023/07/10 22:21:56;;;;;;;4.30;3.08;;;31.00;76.40;;;;;;10905900;32;20008;-72
2023/07/10 22:27:58;;;;;;;3.67;2.33;;;30.90;76.40;;;;;;10905712;32;20024;-72
2023/07/10 22:34:00;;;;;;;3.50;2.28;;;30.80;76.60;;;;;;10904590;32;20416;-72
2023/07/10 22:40:03;;;;;;;6.57;2.95;;;30.80;77.40;;;;;;10904442;32;20333;-72
2023/07/10 22:46:24;;;;;;;3.60;2.55;;;30.80;77.80;;;;;;10904159;32;20015;-72
2023/07/10 22:52:26;;;;;;;4.62;2.72;;;30.70;77.50;;;;;;10889388;32;20389;-72
2023/07/10 22:58:28;;;;;;;4.85;2.62;;;30.60;77.70;;;;;;10889185;32;20028;-72
2023/07/10 23:04:29;;;;;;;4.97;3.37;;;30.60;78.50;;;;;;10889571;32;20069;-72
2023/07/10 23:10:31;;;;;;;6.32;3.60;;;30.50;79.10;;;;;;10890734;32;20011;-72
2023/07/10 23:16:33;;;;;;;5.95;3.45;;;30.40;78.70;;;;;;10889611;32;20023;-72
2023/07/10 23:22:35;;;;;;;4.07;2.53;;;30.30;78.60;;;;;;10900344;32;20015;-72
2023/07/10 23:28:37;;;;;;;5.15;3.20;;;30.30;78.50;;;;;;10696819;27;6961426;-71
2023/07/10 23:34:39;;;;;;;4.43;3.05;;;30.40;78.30;;;;;;10904468;32;20046;-72
2023/07/10 23:40:41;;;;;;;7.50;4.07;;;30.40;78.90;;;;;;10903921;32;20042;-72
2023/07/10 23:46:43;;;;;;;4.85;2.97;;;30.30;78.80;;;;;;10904287;32;20019;-72
2023/07/10 23:52:46;;;;;;;4.97;2.87;;;30.30;78.60;;;;;;10905488;32;20027;-72
2023/07/10 23:58:48;;;;;;;13.05;2.90;;;30.20;79.30;;;;;;10903384;32;20334;-72
